Time;durP1;ratioP1;P1;durP2;ratioP2;P2;SDS_P1;SDS_P2;PMS_P1;PMS_P2;Temp;Humidity;BMP_temperature;BMP_pressure;BME280_temperature;BME280_humidity;BME280_pressure;Samples;Min_cycle;Max_cycle;Signal;HPM_P1;HPM_P2
2023/08/13 00:00:15;;;;;;;15.60;3.28;;;23.00;86.60;;;;;;7385923;19;20003;-74
2023/08/13 00:02:46;;;;;;;14.73;3.03;;;23.00;86.90;;;;;;7386637;19;20018;-76
2023/08/13 00:05:15;;;;;;;;;;;22.90;86.60;;;;;;7386902;19;20422;-75
2023/08/13 00:07:43;;;;;;;17.35;2.95;;;23.00;86.80;;;;;;7385886;19;19911;-75
2023/08/13 00:10:12;;;;;;;20.77;3.13;;;22.90;86.70;;;;;;7408489;19;20016;-75
2023/08/13 00:12:41;;;;;;;7.53;3.30;;;22.90;87.10;;;;;;7388287;19;20414;-75
2023/08/13 00:15:11;;;;;;;12.25;3.05;;;22.90;87.00;;;;;;7385805;19;20013;-75
2023/08/13 00:17:40;;;;;;;17.48;2.92;;;22.80;87.10;;;;;;7386356;19;20007;-74
2023/08/13 00:20:13;;;;;;;13.32;3.08;;;22.80;87.30;;;;;;7384138;19;20354;-74
2023/08/13 00:22:42;;;;;;;15.05;3.20;;;22.80;87.20;;;;;;7385287;19;20010;-75
2023/08/13 00:25:11;;;;;;;14.90;3.40;;;22.70;87.30;;;;;;7407154;19;20267;-75
2023/08/13 00:27:40;;;;;;;11.45;3.08;;;22.70;87.60;;;;;;7384847;19;20016;-75
2023/08/13 00:30:10;;;;;;;15.43;3.55;;;22.70;88.50;;;;;;7385265;19;20006;-75
2023/08/13 00:32:38;;;;;;;10.95;2.40;;;22.70;87.60;;;;;;7385553;19;20006;-75
2023/08/13 00:35:11;;;;;;;17.48;3.00;;;22.70;87.60;;;;;;7386861;19;20007;-74
2023/08/13 00:37:40;;;;;;;11.10;2.90;;;22.70;88.00;;;;;;7401635;19;20010;-75
2023/08/13 00:40:10;;;;;;;8.50;2.83;;;22.60;87.80;;;;;;7406879;19;20070;-74
2023/08/13 00:42:39;;;;;;;18.08;3.20;;;22.60;87.60;;;;;;7385765;19;20007;-75
2023/08/13 00:45:09;;;;;;;9.50;2.65;;;22.50;87.70;;;;;;7384813;19;20366;-75
2023/08/13 00:47:39;;;;;;;10.43;2.50;;;22.50;87.80;;;;;;7384335;19;20002;-74
2023/08/13 00:50:12;;;;;;;15.48;3.05;;;22.50;88.20;;;;;;7384611;19;20211;-75
2023/08/13 00:52:41;;;;;;;15.55;2.95;;;22.50;88.20;;;;;;7395520;19;20011;-74
2023/08/13 00:55:10;;;;;;;9.25;3.22;;;22.50;88.10;;;;;;7406606;19;20006;-75
2023/08/13 00:57:40;;;;;;;12.70;3.05;;;22.50;88.40;;;;;;7383674;19;20074;-75
2023/08/13 01:00:10;;;;;;;15.70;3.28;;;22.50;88.40;;;;;;7382914;19;20099;-74
2023/08/13 01:02:39;;;;;;;12.93;2.78;;;22.50;88.50;;;;;;7384297;19;20010;-75
2023/08/13 01:05:11;;;;;;;13.90;3.08;;;22.50;88.40;;;;;;7384449;19;20010;-75
2023/08/13 01:07:44;;;;;;;;;;;22.50;88.20;;;;;;7405815;19;20014;-74
2023/08/13 01:10:20;;;;;;;11.65;3.22;;;22.50;88.10;;;;;;7405468;19;20188;-76
2023/08/13 01:12:57;;;;;;;12.85;2.90;;;22.50;88.10;;;;;;7383485;19;20015;-74
2023/08/13 01:15:32;;;;;;;19.95;2.95;;;22.50;88.00;;;;;;7383447;19;20002;-75
2023/08/13 01:18:02;;;;;;;17.17;2.92;;;22.50;88.10;;;;;;7384260;19;20002;-74
2023/08/13 01:20:39;;;;;;;12.85;3.85;;;22.50;88.10;;;;;;7382952;19;20417;-74
2023/08/13 01:23:10;;;;;;;11.75;2.90;;;22.60;88.30;;;;;;7384148;19;20007;-75
2023/08/13 01:25:39;;;;;;;;;;;22.50;88.40;;;;;;7405758;19;20006;-74
2023/08/13 01:28:18;;;;;;;10.70;3.13;;;22.60;88.20;;;;;;7383166;19;19924;-75
2023/08/13 01:30:51;;;;;;;10.30;2.67;;;22.60;88.00;;;;;;7383168;19;20015;-75
2023/08/13 01:33:27;;;;;;;11.70;2.92;;;22.50;88.10;;;;;;7383198;19;20020;-75
2023/08/13 01:35:57;;;;;;;22.83;4.05;;;22.40;88.30;;;;;;7383229;19;20003;-75
2023/08/13 01:38:29;;;;;;;13.88;2.80;;;22.30;88.70;;;;;;7386676;19;20006;-75
2023/08/13 01:40:59;;;;;;;16.42;3.15;;;22.30;88.60;;;;;;7381875;19;20023;-74
2023/08/13 01:43:28;;;;;;;13.63;3.33;;;22.30;88.70;;;;;;7404557;19;20002;-74
2023/08/13 01:45:56;;;;;;;11.80;2.97;;;22.30;88.80;;;;;;7382547;19;20003;-75
2023/08/13 01:48:25;;;;;;;19.10;3.08;;;22.30;88.70;;;;;;7382305;19;20287;-74
2023/08/13 01:50:54;;;;;;;12.65;2.72;;;22.30;89.30;;;;;;7382842;19;20006;-75
2023/08/13 01:53:22;;;;;;;12.40;2.78;;;22.30;88.60;;;;;;7383720;19;20003;-75
2023/08/13 01:55:54;;;;;;;8.07;2.90;;;22.30;88.70;;;;;;7382424;19;20009;-75
2023/08/13 01:58:22;;;;;;;;;;;22.20;89.00;;;;;;7405376;19;20006;-75
2023/08/13 02:00:51;;;;;;;8.60;2.65;;;22.20;89.00;;;;;;7378686;19;19914;-74
2023/08/13 02:03:20;;;;;;;12.77;3.13;;;22.20;89.00;;;;;;7382003;19;20090;-74
2023/08/13 02:05:49;;;;;;;14.65;3.00;;;22.20;89.10;;;;;;7384190;19;20040;-76
2023/08/13 02:08:17;;;;;;;12.27;3.13;;;22.20;89.10;;;;;;7382202;19;20327;-75
2023/08/13 02:10:46;;;;;;;5.05;2.30;;;22.20;89.20;;;;;;7381814;19;20011;-74
2023/08/13 02:13:17;;;;;;;11.32;2.90;;;22.10;89.40;;;;;;7403490;19;20083;-74
2023/08/13 02:15:46;;;;;;;;;;;22.10;89.30;;;;;;7382434;19;20014;-75
2023/08/13 02:18:14;;;;;;;7.95;2.47;;;22.10;89.10;;;;;;7381558;19;19920;-75
2023/08/13 02:20:43;;;;;;;10.77;3.00;;;22.10;88.70;;;;;;7381224;19;20026;-75
2023/08/13 02:23:12;;;;;;;12.57;3.03;;;22.10;89.00;;;;;;7381911;19;20374;-75
2023/08/13 02:25:40;;;;;;;16.83;2.78;;;22.10;89.10;;;;;;7392121;19;20020;-74
2023/08/13 02:28:09;;;;;;;20.63;3.00;;;22.10;89.10;;;;;;7402648;19;20093;-74
2023/08/13 02:30:42;;;;;;;17.35;3.13;;;22.10;89.10;;;;;;7381475;19;20023;-75
2023/08/13 02:33:10;;;;;;;7.10;2.65;;;22.10;89.30;;;;;;7382113;19;20024;-74
2023/08/13 02:35:39;;;;;;;12.13;3.05;;;22.10;89.40;;;;;;7383422;19;20561;-74
2023/08/13 02:38:07;;;;;;;10.93;3.13;;;22.00;89.40;;;;;;7384329;19;20002;-75
2023/08/13 02:40:36;;;;;;;15.68;3.33;;;21.90;89.70;;;;;;7404480;19;20024;-76
2023/08/13 02:43:05;;;;;;;16.67;3.00;;;22.00;89.90;;;;;;7381906;19;20030;-75
2023/08/13 02:45:34;;;;;;;13.32;2.95;;;22.00;89.90;;;;;;7380844;19;20006;-74
2023/08/13 02:48:05;;;;;;;19.83;2.63;;;22.00;90.00;;;;;;7380922;19;20006;-75
2023/08/13 02:50:34;;;;;;;21.33;3.35;;;21.90;89.80;;;;;;7381018;19;20010;-75
2023/08/13 02:53:03;;;;;;;10.27;2.88;;;22.00;89.60;;;;;;7381613;19;20016;-75
2023/08/13 02:55:32;;;;;;;14.55;3.10;;;22.00;89.60;;;;;;7402242;19;20023;-76
2023/08/13 02:58:01;;;;;;;9.77;2.78;;;22.00;89.70;;;;;;7380234;19;20286;-74
2023/08/13 03:00:29;;;;;;;10.07;2.58;;;22.00;89.60;;;;;;7380995;19;20011;-75
2023/08/13 03:02:58;;;;;;;16.77;2.95;;;22.00;89.40;;;;;;7380600;19;20023;-75
2023/08/13 03:05:32;;;;;;;11.48;3.30;;;22.00;89.10;;;;;;7380602;19;20025;-75
2023/08/13 03:08:00;;;;;;;11.15;2.60;;;22.00;89.20;;;;;;7381210;19;19999;-75
2023/08/13 03:10:29;;;;;;;16.23;2.85;;;22.00;89.40;;;;;;7403181;19;20019;-76
2023/08/13 03:12:58;;;;;;;20.23;3.13;;;22.00;89.60;;;;;;7387365;19;20260;-75
2023/08/13 03:15:26;;;;;;;11.80;2.60;;;22.00;89.60;;;;;;7387860;19;20023;-75
2023/08/13 03:17:55;;;;;;;8.60;2.88;;;22.00;89.70;;;;;;7388381;19;20007;-76
2023/08/13 03:20:24;;;;;;;8.48;2.95;;;22.00;89.60;;;;;;7387186;19;20006;-75
2023/08/13 03:22:56;;;;;;;15.45;3.30;;;22.00;89.50;;;;;;7387756;19;20281;-74
2023/08/13 03:25:25;;;;;;;17.35;3.05;;;21.90;89.70;;;;;;7409210;19;20015;-74
2023/08/13 03:27:53;;;;;;;13.55;2.97;;;21.90;89.50;;;;;;7386789;19;20248;-74
2023/08/13 03:30:22;;;;;;;8.52;3.05;;;22.00;89.60;;;;;;7387353;19;20006;-75
2023/08/13 03:32:51;;;;;;;21.08;3.15;;;22.00;89.70;;;;;;7387243;19;20007;-74
2023/08/13 03:35:19;;;;;;;11.32;2.80;;;21.90;89.50;;;;;;7387438;19;19999;-75
2023/08/13 03:37:48;;;;;;;28.02;3.00;;;21.90;89.70;;;;;;7387331;19;20284;-75
2023/08/13 03:40:20;;;;;;;14.93;3.15;;;21.90;89.70;;;;;;7407446;19;20023;-74
2023/08/13 03:42:48;;;;;;;10.73;2.90;;;21.80;89.50;;;;;;7386234;19;20016;-75
2023/08/13 03:45:17;;;;;;;11.23;2.60;;;21.80;89.90;;;;;;7387053;19;19999;-75
2023/08/13 03:47:46;;;;;;;9.05;2.75;;;21.80;90.00;;;;;;7386798;19;20055;-74
2023/08/13 03:50:14;;;;;;;8.63;2.60;;;21.80;90.00;;;;;;7386981;19;20023;-75
2023/08/13 03:52:43;;;;;;;12.23;2.50;;;21.80;89.80;;;;;;7386576;19;20079;-75
2023/08/13 03:55:12;;;;;;;18.13;2.88;;;21.80;90.00;;;;;;7408291;19;20011;-75
2023/08/13 03:57:43;;;;;;;12.77;2.83;;;21.70;90.00;;;;;;7388730;19;20002;-75
2023/08/13 04:00:12;;;;;;;;;;;21.70;90.00;;;;;;7386642;19;20378;-74
2023/08/13 04:02:41;;;;;;;12.57;2.97;;;21.70;90.00;;;;;;7386345;19;19966;-74
2023/08/13 04:05:11;;;;;;;9.48;2.75;;;21.60;90.00;;;;;;7386139;19;20013;-74
2023/08/13 04:07:40;;;;;;;12.77;3.15;;;21.60;90.00;;;;;;7400579;19;20018;-75
2023/08/13 04:10:10;;;;;;;12.40;2.97;;;21.60;89.80;;;;;;7407332;19;20011;-74
2023/08/13 04:12:38;;;;;;;11.73;2.80;;;21.60;90.00;;;;;;7385285;19;20064;-74
2023/08/13 04:15:11;;;;;;;10.68;2.85;;;21.60;90.00;;;;;;7386421;19;20010;-75
2023/08/13 04:17:39;;;;;;;10.85;2.83;;;21.60;90.00;;;;;;7385828;19;20002;-74
2023/08/13 04:20:10;;;;;;;12.68;2.72;;;21.60;90.00;;;;;;7385246;19;20014;-75
2023/08/13 04:22:39;;;;;;;14.50;3.00;;;21.50;90.00;;;;;;7406066;19;20010;-74
2023/08/13 04:25:08;;;;;;;10.38;2.83;;;21.60;90.00;;;;;;7385294;19;20654;-76
2023/08/13 04:27:37;;;;;;;18.60;3.10;;;21.60;90.00;;;;;;7384927;19;20082;-75
2023/08/13 04:30:09;;;;;;;14.13;2.90;;;21.60;90.00;;;;;;7386033;19;20003;-75
2023/08/13 04:32:40;;;;;;;10.48;2.80;;;21.50;90.00;;;;;;7386899;19;20396;-75
2023/08/13 04:35:10;;;;;;;10.90;3.05;;;21.50;90.00;;;;;;7387575;19;19999;-75
2023/08/13 04:37:38;;;;;;;17.80;3.20;;;21.50;90.00;;;;;;7409150;19;20220;-74
2023/08/13 04:40:10;;;;;;;16.58;3.00;;;21.50;90.00;;;;;;7386514;19;20114;-75
2023/08/13 04:42:41;;;;;;;12.93;3.03;;;21.50;90.30;;;;;;7385388;19;20006;-75
2023/08/13 04:45:15;;;;;;;15.07;2.83;;;21.50;90.00;;;;;;7385374;19;20025;-75
2023/08/13 04:47:44;;;;;;;19.08;2.95;;;21.50;90.00;;;;;;7384842;19;20003;-75
2023/08/13 04:50:13;;;;;;;10.68;2.80;;;21.50;90.00;;;;;;7384916;19;20012;-75
2023/08/13 04:52:42;;;;;;;9.95;2.95;;;21.50;90.10;;;;;;7385654;19;20002;-75
2023/08/13 04:55:11;;;;;;;12.85;2.95;;;21.50;90.10;;;;;;7406580;19;20027;-75
2023/08/13 04:57:39;;;;;;;13.70;2.78;;;21.50;90.20;;;;;;7383773;19;20003;-74
2023/08/13 05:00:13;;;;;;;10.15;3.08;;;21.50;90.30;;;;;;7384652;19;20016;-75
2023/08/13 05:02:41;;;;;;;14.50;3.00;;;21.50;90.40;;;;;;7384388;19;20370;-75
2023/08/13 05:05:10;;;;;;;12.15;2.63;;;21.50;90.40;;;;;;7384576;19;20023;-75
2023/08/13 05:07:39;;;;;;;12.30;2.97;;;21.50;90.40;;;;;;7405966;19;20024;-74
2023/08/13 05:10:08;;;;;;;15.32;3.00;;;21.50;90.40;;;;;;7383606;19;20362;-75
2023/08/13 05:12:37;;;;;;;9.45;2.83;;;21.50;90.30;;;;;;7383539;19;20031;-75
2023/08/13 05:15:07;;;;;;;14.20;3.15;;;21.40;90.30;;;;;;7384416;19;20007;-74
2023/08/13 05:17:38;;;;;;;16.25;2.95;;;21.40;90.40;;;;;;7383829;19;20062;-75
2023/08/13 05:20:08;;;;;;;;;;;21.40;90.40;;;;;;7384064;19;20279;-75
2023/08/13 05:22:37;;;;;;;12.60;2.78;;;21.50;90.50;;;;;;7407911;19;19917;-74
2023/08/13 05:25:06;;;;;;;11.13;2.75;;;21.40;90.50;;;;;;7383676;19;20003;-75
2023/08/13 05:27:35;;;;;;;9.90;2.90;;;21.40;90.50;;;;;;7383127;19;20002;-75
2023/08/13 05:30:05;;;;;;;12.10;2.90;;;21.40;90.60;;;;;;7383815;19;20048;-74
2023/08/13 05:32:33;;;;;;;13.50;3.42;;;21.50;90.60;;;;;;7382244;19;20010;-74
2023/08/13 05:35:05;;;;;;;11.73;2.80;;;21.50;90.90;;;;;;7380900;19;20015;-74
2023/08/13 05:37:34;;;;;;;15.32;2.90;;;21.50;90.60;;;;;;7404811;19;20240;-75
2023/08/13 05:40:03;;;;;;;12.40;3.22;;;21.50;90.60;;;;;;7382352;19;19998;-75
2023/08/13 05:42:31;;;;;;;7.40;2.75;;;21.50;90.60;;;;;;7381961;19;20081;-75
2023/08/13 05:45:00;;;;;;;10.05;2.70;;;21.60;90.60;;;;;;7382933;19;20023;-75
2023/08/13 05:47:28;;;;;;;11.48;2.78;;;21.60;90.50;;;;;;7382395;19;20019;-75
2023/08/13 05:49:57;;;;;;;10.50;2.65;;;21.60;90.70;;;;;;7384747;19;20015;-75
2023/08/13 05:52:29;;;;;;;13.52;3.22;;;21.60;90.60;;;;;;7403900;19;20382;-75
2023/08/13 05:54:58;;;;;;;11.18;3.20;;;21.60;90.70;;;;;;7381962;19;20074;-74
2023/08/13 05:57:26;;;;;;;12.23;3.13;;;21.60;90.60;;;;;;7381971;19;20073;-74
2023/08/13 05:59:55;;;;;;;11.40;2.95;;;21.70;90.70;;;;;;7382297;19;20324;-74
2023/08/13 06:02:24;;;;;;;8.20;2.88;;;21.70;90.70;;;;;;7381439;19;20044;-74
2023/08/13 06:04:52;;;;;;;9.80;3.20;;;21.70;90.60;;;;;;7382059;19;20003;-74
2023/08/13 06:07:21;;;;;;;13.25;3.28;;;21.70;90.80;;;;;;7403742;19;20042;-75
2023/08/13 06:09:52;;;;;;;12.85;3.17;;;21.80;90.80;;;;;;7381438;19;20416;-74
2023/08/13 06:12:21;;;;;;;;;;;21.80;90.70;;;;;;7382376;19;20003;-74
2023/08/13 06:14:49;;;;;;;13.27;2.85;;;21.90;90.80;;;;;;7382315;19;19961;-75
2023/08/13 06:17:18;;;;;;;9.82;2.83;;;21.90;90.80;;;;;;7381886;19;20020;-74
2023/08/13 06:19:47;;;;;;;8.52;3.03;;;22.00;91.40;;;;;;7381162;19;20010;-73
2023/08/13 06:22:18;;;;;;;12.90;3.28;;;22.00;91.00;;;;;;7401951;19;20402;-74
2023/08/13 06:24:47;;;;;;;14.55;3.35;;;22.10;91.10;;;;;;7381159;19;20019;-75
2023/08/13 06:27:18;;;;;;;17.92;3.03;;;22.10;91.00;;;;;;7381567;19;20010;-74
2023/08/13 06:29:47;;;;;;;;;;;22.10;90.90;;;;;;7382437;19;20012;-75
2023/08/13 06:32:15;;;;;;;18.02;3.42;;;22.20;90.90;;;;;;7382277;19;19906;-74
2023/08/13 06:34:44;;;;;;;16.33;3.33;;;22.20;90.70;;;;;;7382224;19;20066;-74
2023/08/13 06:37:13;;;;;;;15.63;2.78;;;22.20;90.70;;;;;;7403876;19;20250;-75
2023/08/13 06:39:42;;;;;;;14.48;2.55;;;22.30;90.70;;;;;;7381661;19;20024;-74
2023/08/13 06:42:10;;;;;;;15.68;3.17;;;22.30;90.70;;;;;;7380670;19;20066;-74
2023/08/13 06:44:41;;;;;;;12.23;3.25;;;22.30;90.60;;;;;;7381833;19;20007;-74
2023/08/13 06:47:10;;;;;;;;;;;22.40;90.50;;;;;;7382757;19;20288;-73
2023/08/13 06:49:38;;;;;;;14.63;3.95;;;22.40;90.50;;;;;;7402099;19;20176;-74
2023/08/13 06:52:08;;;;;;;15.50;3.90;;;22.40;90.50;;;;;;7380820;19;20015;-74
2023/08/13 06:54:36;;;;;;;26.02;4.32;;;22.50;90.70;;;;;;7380253;19;20023;-74
2023/08/13 06:57:08;;;;;;;21.63;5.88;;;22.50;90.70;;;;;;7380185;19;20006;-75
2023/08/13 06:59:42;;;;;;;23.85;4.60;;;22.50;90.60;;;;;;7379949;19;20058;-74
2023/08/13 07:02:10;;;;;;;16.52;3.63;;;22.50;90.40;;;;;;7380248;19;20016;-74
2023/08/13 07:04:39;;;;;;;19.63;3.00;;;22.50;90.40;;;;;;7402178;19;19999;-74
2023/08/13 07:07:08;;;;;;;17.30;3.40;;;22.50;90.50;;;;;;7380529;19;20007;-74
2023/08/13 07:09:36;;;;;;;18.65;3.72;;;22.50;90.50;;;;;;7380088;19;20067;-74
2023/08/13 07:12:07;;;;;;;22.70;3.85;;;22.50;90.50;;;;;;7380448;19;20032;-74
2023/08/13 07:14:36;;;;;;;16.65;3.38;;;22.50;90.50;;;;;;7380532;19;20027;-75
2023/08/13 07:17:07;;;;;;;14.40;3.35;;;22.50;90.50;;;;;;7380116;19;20615;-75
2023/08/13 07:19:36;;;;;;;;;;;22.50;90.60;;;;;;7402234;19;20078;-75
2023/08/13 07:22:06;;;;;;;21.40;3.53;;;22.60;90.60;;;;;;7379273;19;19917;-75
2023/08/13 07:24:34;;;;;;;11.15;2.78;;;22.60;90.60;;;;;;7379627;19;20015;-74
2023/08/13 07:27:04;;;;;;;14.45;3.10;;;22.70;90.60;;;;;;7380367;19;20006;-74
2023/08/13 07:29:33;;;;;;;13.68;3.03;;;22.70;90.60;;;;;;7380433;19;20015;-73
2023/08/13 07:32:01;;;;;;;16.38;2.90;;;22.80;90.50;;;;;;7380650;19;20000;-74
2023/08/13 07:34:33;;;;;;;10.93;2.78;;;22.80;90.40;;;;;;7400705;19;20010;-74
2023/08/13 07:37:01;;;;;;;;;;;22.90;90.10;;;;;;7379674;19;20015;-74
2023/08/13 07:39:30;;;;;;;15.88;2.85;;;23.00;90.10;;;;;;7379222;19;19907;-74
2023/08/13 07:41:59;;;;;;;14.65;3.50;;;23.00;88.00;;;;;;7380310;19;20119;-74
2023/08/13 07:44:27;;;;;;;17.27;3.00;;;22.90;87.50;;;;;;7379847;19;20019;-75
2023/08/13 07:46:58;;;;;;;22.67;3.35;;;23.00;87.60;;;;;;7379791;19;20007;-74
2023/08/13 07:49:27;;;;;;;18.08;2.90;;;23.00;87.40;;;;;;7400793;19;20007;-74
2023/08/13 07:51:59;;;;;;;18.20;3.10;;;23.00;87.60;;;;;;7379168;19;20016;-75
2023/08/13 07:54:30;;;;;;;22.60;3.40;;;23.10;87.20;;;;;;7379106;19;20074;-74
2023/08/13 07:57:00;;;;;;;14.50;2.95;;;23.20;86.90;;;;;;7379202;19;20102;-74
2023/08/13 07:59:29;;;;;;;15.25;2.83;;;23.30;86.30;;;;;;7386560;19;20006;-74
2023/08/13 08:01:58;;;;;;;18.90;3.10;;;23.30;86.00;;;;;;7386705;19;20007;-74
2023/08/13 08:04:26;;;;;;;17.60;3.03;;;23.40;85.00;;;;;;7407876;19;20014;-74
2023/08/13 08:06:58;;;;;;;17.50;2.63;;;23.30;85.40;;;;;;7385930;19;20010;-74
2023/08/13 08:09:27;;;;;;;17.75;3.15;;;23.10;85.70;;;;;;7385680;19;20009;-74
2023/08/13 08:11:55;;;;;;;12.82;2.60;;;23.20;86.90;;;;;;7386338;19;20011;-74
2023/08/13 08:14:24;;;;;;;9.70;2.30;;;23.20;85.00;;;;;;7386071;19;20020;-74
2023/08/13 08:16:57;;;;;;;15.23;2.55;;;23.30;85.30;;;;;;7386283;19;20010;-74
2023/08/13 08:19:26;;;;;;;22.10;3.33;;;23.30;85.30;;;;;;7407139;19;20007;-74
2023/08/13 08:21:58;;;;;;;11.68;2.63;;;23.40;85.60;;;;;;7383910;19;20003;-74
2023/08/13 08:24:27;;;;;;;21.00;3.08;;;23.50;85.70;;;;;;7385842;19;19999;-74
2023/08/13 08:26:55;;;;;;;17.75;2.88;;;23.50;85.40;;;;;;7385847;19;20028;-74
2023/08/13 08:29:24;;;;;;;12.18;2.42;;;23.30;85.00;;;;;;7385519;19;20010;-74
2023/08/13 08:31:53;;;;;;;13.95;2.90;;;23.40;85.30;;;;;;7385432;19;20027;-75
2023/08/13 08:34:22;;;;;;;17.35;2.65;;;23.40;85.10;;;;;;7406867;19;20015;-75
2023/08/13 08:36:50;;;;;;;15.13;2.67;;;23.40;85.00;;;;;;7387535;19;20023;-75
2023/08/13 08:39:22;;;;;;;12.52;2.78;;;23.30;85.70;;;;;;7389514;19;20237;-75
2023/08/13 08:41:50;;;;;;;;;;;23.20;85.40;;;;;;7388207;19;20276;-74
2023/08/13 08:44:23;;;;;;;17.77;2.78;;;23.30;85.40;;;;;;7388314;19;19928;-74
2023/08/13 08:46:53;;;;;;;13.77;2.90;;;23.40;84.80;;;;;;7385634;19;20027;-74
2023/08/13 08:49:24;;;;;;;9.90;2.53;;;23.30;85.30;;;;;;7405460;19;20397;-74
2023/08/13 08:51:53;;;;;;;14.40;2.50;;;23.40;84.50;;;;;;7384074;19;20079;-73
2023/08/13 08:54:24;;;;;;;13.10;2.42;;;23.30;84.20;;;;;;7384540;19;20007;-74
2023/08/13 08:56:53;;;;;;;;;;;23.20;83.70;;;;;;7384918;19;20007;-74
2023/08/13 08:59:22;;;;;;;14.32;2.75;;;23.20;83.90;;;;;;7384497;19;19911;-74
2023/08/13 09:01:50;;;;;;;13.15;2.40;;;23.20;84.50;;;;;;7386846;19;20070;-74
2023/08/13 09:04:19;;;;;;;11.68;2.67;;;23.30;84.40;;;;;;7408560;19;19998;-74
2023/08/13 09:06:59;;;;;;;15.25;2.88;;;23.40;84.10;;;;;;7383587;19;20058;-74
2023/08/13 09:09:31;;;;;;;14.82;2.38;;;23.40;84.00;;;;;;7383719;19;20003;-74
2023/08/13 09:12:01;;;;;;;14.23;2.67;;;23.40;83.20;;;;;;7383917;19;20011;-73
2023/08/13 09:14:30;;;;;;;15.18;2.47;;;23.30;82.90;;;;;;7384092;19;20014;-74
2023/08/13 09:17:00;;;;;;;13.88;2.60;;;23.20;83.90;;;;;;7384012;19;20394;-74
2023/08/13 09:19:30;;;;;;;11.50;2.30;;;23.30;83.90;;;;;;7405033;19;20397;-74
2023/08/13 09:22:03;;;;;;;13.57;2.63;;;23.10;84.00;;;;;;7382595;19;20468;-74
2023/08/13 09:24:38;;;;;;;16.13;2.60;;;23.20;84.10;;;;;;7382455;19;20323;-74
2023/08/13 09:27:09;;;;;;;15.25;2.78;;;23.30;84.20;;;;;;7383648;19;20366;-73
2023/08/13 09:29:39;;;;;;;21.63;3.08;;;23.10;82.30;;;;;;7383341;19;20423;-73
2023/08/13 09:32:08;;;;;;;14.38;2.70;;;23.30;83.30;;;;;;7383626;19;20355;-73
2023/08/13 09:34:37;;;;;;;11.90;2.72;;;23.50;84.20;;;;;;7406965;19;20244;-73
2023/08/13 09:37:06;;;;;;;10.40;2.15;;;23.60;84.90;;;;;;7383976;19;20021;-74
2023/08/13 09:39:37;;;;;;;26.42;3.00;;;23.70;83.30;;;;;;7382723;19;20023;-73
2023/08/13 09:42:07;;;;;;;;;;;23.60;82.40;;;;;;7383224;19;20070;-74
2023/08/13 09:44:36;;;;;;;18.05;3.33;;;23.60;81.80;;;;;;7382283;19;20177;-73
2023/08/13 09:47:09;;;;;;;14.00;2.60;;;23.70;82.10;;;;;;7383217;19;20023;-74
2023/08/13 09:49:39;;;;;;;10.95;2.20;;;23.70;81.60;;;;;;7404772;19;20023;-74
2023/08/13 09:52:11;;;;;;;17.10;2.85;;;23.80;81.40;;;;;;7381920;19;20014;-73
2023/08/13 09:54:48;;;;;;;9.73;2.38;;;23.80;81.60;;;;;;7381698;19;20254;-73
2023/08/13 09:57:19;;;;;;;17.08;2.90;;;23.80;81.80;;;;;;7382273;19;20006;-73
2023/08/13 10:09:06;;;;;;;11.85;2.60;;;23.80;80.60;;;;;;7352250;19;20017;-85
2023/08/13 10:11:37;;;;;;;12.10;2.58;;;23.60;81.50;;;;;;7407497;19;20013;-78
2023/08/13 10:14:09;;;;;;;18.75;3.10;;;23.60;81.50;;;;;;7389857;19;20013;-79
2023/08/13 10:16:41;;;;;;;12.48;2.65;;;23.50;80.60;;;;;;7406936;19;20009;-79
2023/08/13 10:19:10;;;;;;;12.52;2.63;;;23.50;81.40;;;;;;7386527;19;20074;-79
2023/08/13 10:21:40;;;;;;;12.73;2.70;;;23.60;82.70;;;;;;7383993;19;20378;-79
2023/08/13 10:24:14;;;;;;;14.73;2.72;;;23.70;81.60;;;;;;7386723;19;20075;-79
2023/08/13 10:26:46;;;;;;;13.68;2.53;;;23.70;82.10;;;;;;7386836;19;20006;-80
2023/08/13 10:29:17;;;;;;;10.93;2.42;;;23.80;82.40;;;;;;7387422;19;20014;-80
2023/08/13 10:32:02;;;;;;;12.52;2.47;;;24.00;81.60;;;;;;7388719;19;20346;-78
2023/08/13 10:34:44;;;;;;;15.02;3.08;;;24.10;80.30;;;;;;7406056;19;20014;-80
2023/08/13 10:37:18;;;;;;;10.77;2.85;;;24.00;79.90;;;;;;7384832;19;19998;-78
2023/08/13 10:40:09;;;;;;;11.13;2.78;;;24.00;80.60;;;;;;7383215;19;20006;-81
2023/08/13 10:42:56;;;;;;;17.50;2.75;;;24.10;78.80;;;;;;7400083;19;20013;-78
2023/08/13 10:45:37;;;;;;;8.43;2.60;;;24.10;78.10;;;;;;7401943;19;20007;-79
2023/08/13 10:48:20;;;;;;;11.35;2.70;;;24.20;77.80;;;;;;7401427;19;20092;-80
2023/08/13 10:50:59;;;;;;;13.80;2.47;;;24.30;78.30;;;;;;7402705;19;20018;-79
2023/08/13 10:53:30;;;;;;;19.23;2.88;;;24.30;77.70;;;;;;7387565;19;20006;-80
2023/08/13 10:56:07;;;;;;;11.63;2.60;;;24.20;77.20;;;;;;7383085;19;20003;-79
2023/08/13 10:58:42;;;;;;;11.02;2.10;;;24.30;77.20;;;;;;7405245;19;20035;-79
2023/08/13 11:01:16;;;;;;;12.63;2.67;;;24.40;75.80;;;;;;7384294;19;20070;-79
2023/08/13 11:03:47;;;;;;;9.93;2.40;;;24.40;76.10;;;;;;7381823;19;20014;-80
2023/08/13 11:06:17;;;;;;;10.68;3.15;;;24.40;75.80;;;;;;7383836;19;20050;-80
2023/08/13 11:09:48;;;;;;;;;;;;;;;;;;;;;
2023/08/13 11:16:16;;;;;;;11.27;2.35;;;24.60;75.20;;;;;;7411291;19;20006;-83
2023/08/13 11:18:45;;;;;;;19.33;2.83;;;24.60;75.60;;;;;;7385209;19;20014;-78
2023/08/13 11:21:14;;;;;;;8.30;2.22;;;24.40;76.10;;;;;;7387365;19;20014;-78
2023/08/13 11:23:44;;;;;;;12.15;2.65;;;24.30;77.50;;;;;;7386614;19;20013;-78
2023/08/13 11:29:24;;;;;;;12.43;2.58;;;24.30;79.60;;;;;;7385333;19;20258;-76
2023/08/13 11:31:55;;;;;;;16.77;2.88;;;24.20;78.70;;;;;;7385607;19;20366;-77
2023/08/13 11:34:24;;;;;;;14.73;2.72;;;24.30;76.70;;;;;;7410194;19;20381;-77
2023/08/13 11:36:55;;;;;;;12.82;2.35;;;24.40;75.50;;;;;;7390647;19;20014;-76
2023/08/13 11:39:23;;;;;;;;;;;24.40;76.20;;;;;;7392095;19;20003;-76
2023/08/13 11:41:53;;;;;;;15.68;3.05;;;24.60;75.90;;;;;;7389925;19;19914;-77
2023/08/13 11:44:22;;;;;;;17.55;2.97;;;24.80;76.00;;;;;;7389387;19;20281;-77
2023/08/13 11:47:04;;;;;;;15.90;3.05;;;25.00;75.20;;;;;;7390414;19;20251;-77
2023/08/13 11:49:32;;;;;;;;;;;25.20;75.30;;;;;;7412703;19;20107;-77
2023/08/13 11:52:03;;;;;;;12.13;2.80;;;25.20;72.50;;;;;;7389456;19;19936;-76
2023/08/13 11:54:31;;;;;;;18.48;2.63;;;25.30;71.60;;;;;;7389405;19;20015;-76
2023/08/13 11:57:00;;;;;;;20.58;2.40;;;25.30;71.40;;;;;;7389941;19;20243;-77
2023/08/13 11:59:30;;;;;;;14.80;2.88;;;25.50;71.20;;;;;;7390240;19;20011;-78
2023/08/13 12:02:04;;;;;;;13.02;2.17;;;25.50;71.20;;;;;;7388404;19;20354;-77
2023/08/13 12:04:34;;;;;;;9.85;2.38;;;25.50;71.60;;;;;;7409837;19;20010;-76
2023/08/13 12:07:07;;;;;;;11.32;2.38;;;25.50;69.90;;;;;;7389898;19;20023;-76
2023/08/13 12:09:35;;;;;;;7.90;2.13;;;25.30;71.60;;;;;;7389979;19;20011;-77
2023/08/13 12:12:04;;;;;;;15.38;2.42;;;25.20;71.50;;;;;;7389207;19;20018;-77
2023/08/13 12:14:33;;;;;;;13.93;2.60;;;25.10;72.50;;;;;;7389683;19;20391;-77
2023/08/13 12:17:04;;;;;;;9.95;2.30;;;25.20;72.40;;;;;;7389949;19;20375;-77
2023/08/13 12:19:33;;;;;;;7.78;2.33;;;25.20;72.40;;;;;;7411379;19;20027;-77
2023/08/13 12:22:02;;;;;;;13.30;2.45;;;25.20;72.10;;;;;;7389321;19;20018;-77
2023/08/13 12:24:31;;;;;;;15.52;2.88;;;25.10;72.50;;;;;;7388381;19;20010;-77
2023/08/13 12:27:00;;;;;;;10.75;2.85;;;25.10;72.20;;;;;;7388679;19;20721;-76
2023/08/13 12:29:29;;;;;;;11.13;3.13;;;25.10;72.20;;;;;;7387837;19;20007;-77
2023/08/13 12:31:57;;;;;;;14.00;2.60;;;25.10;72.00;;;;;;7389786;19;20014;-76
2023/08/13 12:34:28;;;;;;;12.32;2.20;;;25.10;72.50;;;;;;7411892;19;20017;-75
2023/08/13 12:36:57;;;;;;;;;;;25.10;72.20;;;;;;7389688;19;20024;-77
2023/08/13 12:39:26;;;;;;;10.65;2.67;;;25.10;71.40;;;;;;7388777;19;19910;-77
2023/08/13 12:41:55;;;;;;;13.77;2.33;;;25.30;72.70;;;;;;7387059;19;20011;-78
2023/08/13 12:44:24;;;;;;;15.02;3.00;;;25.40;71.20;;;;;;7391271;19;20051;-77
2023/08/13 12:46:52;;;;;;;9.77;2.15;;;25.40;71.20;;;;;;7388521;19;20018;-77
2023/08/13 12:49:21;;;;;;;8.43;1.92;;;25.40;71.90;;;;;;7414955;19;20006;-77
2023/08/13 12:51:53;;;;;;;6.15;1.83;;;25.40;70.20;;;;;;7392576;19;20010;-78
2023/08/13 12:54:21;;;;;;;9.18;1.83;;;25.70;69.70;;;;;;7393072;19;20373;-77
2023/08/13 12:56:50;;;;;;;12.77;2.38;;;25.80;68.50;;;;;;7392932;19;20011;-77
2023/08/13 12:59:20;;;;;;;9.73;2.10;;;25.70;67.60;;;;;;7391467;19;20047;-77
2023/08/13 13:01:49;;;;;;;15.07;2.40;;;25.80;67.00;;;;;;7387981;19;20015;-77
2023/08/13 13:04:17;;;;;;;10.20;2.10;;;25.80;65.90;;;;;;7408528;19;20291;-77
2023/08/13 13:06:47;;;;;;;13.13;2.30;;;25.70;66.80;;;;;;7388469;19;20272;-77
2023/08/13 13:09:18;;;;;;;11.95;2.10;;;25.60;66.00;;;;;;7387313;19;20022;-76
2023/08/13 13:11:47;;;;;;;9.25;1.95;;;25.50;66.90;;;;;;7386882;19;20003;-77
2023/08/13 13:14:15;;;;;;;15.88;2.63;;;25.30;67.10;;;;;;7388446;19;20011;-77
2023/08/13 13:16:44;;;;;;;9.15;2.00;;;25.30;67.90;;;;;;7388146;19;20007;-77